Time;durP1;ratioP1;P1;durP2;ratioP2;P2;SDS_P1;SDS_P2;PMS_P1;PMS_P2;Temp;Humidity;BMP_temperature;BMP_pressure;BME280_temperature;BME280_humidity;BME280_pressure;Samples;Min_cycle;Max_cycle;Signal;HPM_P1;HPM_P2
2023/01/14 00:01:25;;;;;;;13.75;8.63;;;;;;;5.18;100.00;99945.63;1821280;78;25580;-45
2023/01/14 00:03:53;;;;;;;15.30;9.23;;;;;;;5.17;100.00;99948.58;1821426;78;25572;-41
2023/01/14 00:06:31;;;;;;;18.05;9.23;;;;;;;5.15;100.00;99947.52;1821380;78;27486;-41
2023/01/14 00:09:04;;;;;;;15.05;8.73;;;;;;;5.13;100.00;99950.23;1821373;78;25620;-41
2023/01/14 00:11:46;;;;;;;15.35;9.38;;;;;;;5.13;100.00;99955.59;1789394;78;25568;-43
2023/01/14 00:14:30;;;;;;;15.50;9.58;;;;;;;5.12;100.00;99956.67;1793389;78;25472;-42
2023/01/14 00:16:59;;;;;;;16.40;9.40;;;;;;;5.11;100.00;99953.71;1821454;78;25660;-45
2023/01/14 00:19:26;;;;;;;16.02;9.30;;;;;;;5.09;100.00;99960.72;1821526;78;27483;-43
2023/01/14 00:21:56;;;;;;;17.45;10.10;;;;;;;5.10;100.00;99957.50;1821376;78;25376;-43
2023/01/14 00:24:23;;;;;;;16.42;10.25;;;;;;;5.08;100.00;99961.80;1854873;77;25540;-43
2023/01/14 00:26:55;;;;;;;17.23;9.98;;;;;;;5.08;100.00;99962.34;1821320;78;25532;-44
2023/01/14 00:29:29;;;;;;;14.58;10.25;;;;;;;5.09;100.00;99964.75;1854683;77;25477;-41
2023/01/14 00:32:03;;;;;;;16.97;10.13;;;;;;;5.08;100.00;99971.17;1821390;78;27535;-41
2023/01/14 00:34:32;;;;;;;19.30;9.70;;;;;;;5.09;100.00;99971.97;1821678;77;25416;-45
2023/01/14 00:37:00;;;;;;;18.40;9.90;;;;;;;5.08;100.00;99974.41;1821392;78;25387;-43
2023/01/14 00:39:26;;;;;;;23.10;10.43;;;;;;;5.07;100.00;99978.16;1854801;77;25622;-43
2023/01/14 00:41:53;;;;;;;16.20;9.90;;;;;;;5.04;100.00;99982.21;1821338;78;25366;-42
2023/01/14 00:44:19;;;;;;;14.43;9.43;;;;;;;5.03;100.00;99978.70;1854862;77;27475;-41
2023/01/14 00:46:48;;;;;;;15.70;9.68;;;;;;;5.01;100.00;99970.15;1821244;78;25739;-42
2023/01/14 00:49:20;;;;;;;18.35;9.83;;;;;;;4.99;100.00;99973.66;1854827;77;25521;-42
2023/01/14 00:51:48;;;;;;;16.62;10.18;;;;;;;4.98;100.00;99984.11;1821334;78;26125;-44
2023/01/14 00:54:18;;;;;;;19.02;10.20;;;;;;;4.96;100.00;99981.45;1854880;77;25532;-42
2023/01/14 00:56:47;;;;;;;16.50;9.43;;;;;;;4.96;100.00;99991.63;1789464;78;28521;-44
2023/01/14 00:59:23;;;;;;;20.15;10.75;;;;;;;4.93;100.00;99985.48;1854793;77;25615;-42
2023/01/14 01:01:54;;;;;;;17.92;10.08;;;;;;;4.92;100.00;99989.78;1821367;78;25561;-42
2023/01/14 01:04:20;;;;;;;16.17;8.55;;;;;;;4.90;100.00;99995.96;1854890;77;25446;-42
2023/01/14 01:06:47;;;;;;;16.12;9.95;;;;;;;4.89;100.00;99997.85;1821335;78;25595;-42
2023/01/14 01:09:14;;;;;;;14.33;9.48;;;;;;;4.86;100.00;99994.37;1854757;77;27481;-43
2023/01/14 01:11:41;;;;;;;18.07;10.08;;;;;;;4.85;100.00;100002.97;1821265;78;25548;-42
2023/01/14 01:14:09;;;;;;;18.82;10.05;;;;;;;4.86;100.00;100001.08;1854925;77;25601;-43
2023/01/14 01:16:36;;;;;;;16.17;10.48;;;;;;;4.87;100.00;100005.38;1821468;78;25435;-42
2023/01/14 01:19:02;;;;;;;17.52;10.38;;;;;;;4.85;100.00;100001.62;1854991;77;25363;-41
2023/01/14 01:21:28;;;;;;;18.73;10.03;;;;;;;4.85;100.00;100002.97;1821466;78;27263;-42
2023/01/14 01:23:55;;;;;;;17.80;9.48;;;;;;;4.85;100.00;99996.78;1854917;77;25788;-42
2023/01/14 01:26:25;;;;;;;18.67;10.45;;;;;;;4.85;100.00;100008.84;1821433;78;25392;-44
2023/01/14 01:28:56;;;;;;;15.85;9.85;;;;;;;4.85;100.00;100007.50;1851028;77;26014;-42
2023/01/14 01:31:25;;;;;;;15.48;9.13;;;;;;;4.84;100.00;100002.69;1844574;77;25353;-43
2023/01/14 01:33:51;;;;;;;15.35;9.13;;;;;;;4.85;100.00;100012.86;1844706;77;28116;-42
2023/01/14 01:36:28;;;;;;;19.23;10.60;;;;;;;4.85;100.00;100012.86;1844397;77;25428;-42
2023/01/14 01:38:55;;;;;;;14.98;9.25;;;;;;;4.84;100.00;100014.75;1844593;77;25522;-41
2023/01/14 01:41:30;;;;;;;15.65;9.78;;;;;;;4.86;100.00;100007.78;1770328;81;25550;-41
2023/01/14 01:44:10;;;;;;;16.35;9.40;;;;;;;4.85;100.00;100015.03;1801806;79;25617;-42
2023/01/14 01:46:39;;;;;;;18.30;9.80;;;;;;;4.85;100.00;100002.14;1770241;79;27758;-41
2023/01/14 01:49:13;;;;;;;16.77;9.48;;;;;;;4.85;100.00;100005.65;1801745;79;25610;-42
2023/01/14 01:52:00;;;;;;;17.27;9.68;;;;;;;4.85;100.00;100005.65;1801699;79;25392;-40
2023/01/14 01:54:34;;;;;;;16.93;8.88;;;;;;;4.85;100.00;100011.52;1784199;79;25820;-41
2023/01/14 01:57:04;;;;;;;16.60;9.15;;;;;;;4.85;100.00;100010.19;1770427;81;25637;-42
2023/01/14 01:59:35;;;;;;;17.07;9.18;;;;;;;4.83;100.00;100009.12;1801852;79;29909;-41
2023/01/14 02:02:03;;;;;;;18.40;9.88;;;;;;;4.83;100.00;100013.14;1801667;79;25733;-42
2023/01/14 02:04:29;;;;;;;15.28;9.25;;;;;;;4.81;100.00;100009.94;1770351;80;25489;-42
2023/01/14 02:06:55;;;;;;;17.10;9.83;;;;;;;4.81;100.00;100013.96;1801647;79;25570;-40
2023/01/14 02:09:21;;;;;;;14.13;8.80;;;;;;;4.79;100.00;100011.31;1770219;79;25701;-41
2023/01/14 02:12:08;;;;;;;15.95;8.85;;;;;;;4.79;100.00;100020.14;1801676;79;27642;-41
2023/01/14 02:15:00;;;;;;;16.37;8.53;;;;;;;4.76;100.00;100020.69;1770251;81;25741;-41
2023/01/14 02:17:38;;;;;;;12.95;7.55;;;;;;;4.74;100.00;100018.83;1801742;79;25555;-42
2023/01/14 02:20:48;;;;;;;17.70;8.28;;;;;;;4.70;100.00;100011.09;1800719;79;26531;-43
2023/01/14 02:23:41;;;;;;;15.88;8.35;;;;;;;4.68;100.00;100014.05;1801751;79;25642;-41
2023/01/14 02:26:42;;;;;;;15.88;7.87;;;;;;;4.64;100.00;100016.20;1801753;79;28096;-41
2023/01/14 02:29:48;;;;;;;13.83;7.83;;;;;;;4.61;100.00;100022.11;1786604;78;25570;-42
2023/01/14 02:32:41;;;;;;;16.07;8.03;;;;;;;4.56;100.00;100021.59;1724252;82;25496;-41
2023/01/14 02:35:33;;;;;;;14.93;8.00;;;;;;;4.51;100.00;100026.97;1662445;86;25585;-42
2023/01/14 02:38:26;;;;;;;15.05;7.92;;;;;;;4.47;100.00;100028.61;1662013;86;25589;-42
2023/01/14 02:41:20;;;;;;;12.98;7.45;;;;;;;4.43;100.00;100029.70;1678789;85;28124;-42
2023/01/14 02:44:10;;;;;;;14.63;9.00;;;;;;;4.42;100.00;100037.45;1678691;85;25648;-42
2023/01/14 02:46:44;;;;;;;17.80;9.15;;;;;;;4.42;100.00;100039.34;1678791;85;25523;-42
2023/01/14 02:49:16;;;;;;;15.53;8.70;;;;;;;4.41;100.00;100049.27;1674562;85;25509;-41
2023/01/14 02:51:46;;;;;;;14.55;8.15;;;;;;;4.41;100.00;100045.77;1678328;85;25484;-42
2023/01/14 02:54:12;;;;;;;15.63;8.75;;;;;;;4.40;100.00;100054.89;1655663;85;28200;-41
2023/01/14 02:56:40;;;;;;;15.10;9.03;;;;;;;4.42;100.00;100052.73;1678725;85;25612;-40
2023/01/14 02:59:17;;;;;;;16.02;8.68;;;;;;;4.43;100.00;100050.33;1678779;85;25714;-41
2023/01/14 03:02:07;;;;;;;17.32;9.20;;;;;;;4.44;100.00;100052.73;1678833;85;25573;-41
2023/01/14 03:04:46;;;;;;;;;;;;;;;4.46;100.00;100059.12;1680853;85;25466;-42
2023/01/14 03:07:57;;;;;;;10.93;7.80;;;;;;;4.47;100.00;100061.54;1745554;81;27571;-42
2023/01/14 03:10:29;;;;;;;15.20;9.00;;;;;;;4.47;100.00;100062.88;1783491;78;25530;-42
2023/01/14 03:13:04;;;;;;;20.02;8.73;;;;;;;4.47;100.00;100061.54;1821490;78;25460;-41
2023/01/14 03:15:51;;;;;;;16.75;8.55;;;;;;;4.51;100.00;100069.03;1751899;81;25633;-41
2023/01/14 03:19:05;;;;;;;17.70;8.98;;;;;;;4.53;100.00;100068.22;1786922;80;25494;-41
2023/01/14 03:21:45;;;;;;;16.37;9.00;;;;;;;4.53;100.00;100067.70;1786886;80;27711;-41
2023/01/14 03:24:24;;;;;;;17.42;8.75;;;;;;;4.53;100.00;100063.68;1786790;80;27270;-42
2023/01/14 03:26:53;;;;;;;15.45;9.15;;;;;;;4.53;100.00;100066.36;1786398;80;25478;-41
2023/01/14 03:29:40;;;;;;;15.50;7.92;;;;;;;4.55;100.00;100068.77;1760952;80;34817;-41
2023/01/14 03:32:18;;;;;;;20.70;8.80;;;;;;;4.53;100.00;100070.38;1727265;83;25598;-44
2023/01/14 03:34:49;;;;;;;14.30;8.08;;;;;;;4.53;100.00;100084.28;1701520;83;28238;-41
2023/01/14 03:37:19;;;;;;;15.58;8.88;;;;;;;4.51;100.00;100082.42;1724946;83;25660;-41
2023/01/14 03:39:48;;;;;;;15.00;8.10;;;;;;;4.49;100.00;100083.52;1727151;83;25600;-42
2023/01/14 03:42:19;;;;;;;18.40;9.03;;;;;;;4.48;100.00;100087.27;1667588;84;26342;-42
2023/01/14 03:45:19;;;;;;;16.55;8.50;;;;;;;4.48;100.00;100081.11;1692103;84;25593;-42
2023/01/14 03:47:46;;;;;;;19.57;9.78;;;;;;;4.50;100.00;100091.01;1674758;85;27565;-42
2023/01/14 03:50:18;;;;;;;15.63;9.10;;;;;;;4.52;100.00;100100.11;1674439;85;25455;-42
2023/01/14 03:53:26;;;;;;;16.67;9.68;;;;;;;4.52;100.00;100097.44;1687333;84;25736;-42
2023/01/14 03:56:22;;;;;;;16.93;8.20;;;;;;;4.53;100.00;100099.02;1704313;84;25587;-42
2023/01/14 03:59:00;;;;;;;16.35;8.35;;;;;;;4.53;100.00;100107.88;1704384;84;25632;-41
2023/01/14 04:01:40;;;;;;;16.87;8.38;;;;;;;4.53;100.00;100103.04;1702202;84;27613;-43
2023/01/14 04:04:08;;;;;;;13.25;7.55;;;;;;;4.52;100.00;100108.15;1704101;84;25798;-42
2023/01/14 04:06:37;;;;;;;13.60;8.03;;;;;;;4.48;100.00;100110.03;1704381;84;25610;-43
2023/01/14 04:09:07;;;;;;;13.28;8.18;;;;;;;4.47;100.00;100108.95;1808909;79;26003;-43
2023/01/14 04:11:34;;;;;;;13.18;7.40;;;;;;;4.46;100.00;100116.72;1811307;79;25462;-44
2023/01/14 04:16:47;;;;;;;15.90;7.78;;;;;;;4.40;100.00;100119.95;1824245;78;25558;-43
2023/01/14 04:19:14;;;;;;;12.88;7.55;;;;;;;4.36;100.00;100116.23;1823380;78;25459;-42
2023/01/14 04:21:41;;;;;;;12.30;7.22;;;;;;;4.34;100.00;100115.67;1824183;78;25548;-44
2023/01/14 04:24:09;;;;;;;15.93;7.83;;;;;;;4.31;100.00;100125.61;1824206;78;25748;-41
2023/01/14 04:26:35;;;;;;;14.55;7.90;;;;;;;4.27;100.00;100122.67;1796350;78;27326;-42
2023/01/14 04:29:03;;;;;;;14.07;7.78;;;;;;;4.25;100.00;100127.48;1824759;78;25749;-42
2023/01/14 04:31:29;;;;;;;14.38;8.30;;;;;;;4.22;100.00;100125.36;1834427;78;25480;-42
2023/01/14 04:33:55;;;;;;;14.75;7.50;;;;;;;4.20;100.00;100124.81;1821256;78;25585;-42
2023/01/14 04:36:22;;;;;;;13.13;7.85;;;;;;;4.18;100.00;100128.30;1854889;77;25636;-42
2023/01/14 04:38:48;;;;;;;16.00;8.45;;;;;;;4.14;100.00;100130.44;1821311;78;27505;-42
2023/01/14 04:44:00;;;;;;;15.35;7.70;;;;;;;4.06;100.00;100134.48;1821322;78;25577;-42
2023/01/14 04:46:28;;;;;;;14.40;7.75;;;;;;;4.01;100.00;100128.58;1849528;77;25561;-42
2023/01/14 04:48:54;;;;;;;14.58;7.20;;;;;;;3.98;100.00;100137.14;1821326;78;25367;-42
2023/01/14 04:51:20;;;;;;;14.85;7.05;;;;;;;3.96;100.00;100139.29;1854997;77;28489;-43
2023/01/14 04:53:47;;;;;;;12.28;7.30;;;;;;;3.91;100.00;100140.09;1821359;78;25422;-43
2023/01/14 04:56:13;;;;;;;13.22;8.00;;;;;;;3.90;100.00;100138.50;1855011;77;25614;-43
2023/01/14 04:58:39;;;;;;;14.95;7.28;;;;;;;3.87;100.00;100133.67;1821391;78;25553;-42
2023/01/14 05:01:05;;;;;;;14.60;7.55;;;;;;;3.84;100.00;100131.53;1855006;77;25632;-42
2023/01/14 05:03:31;;;;;;;14.38;7.85;;;;;;;3.81;100.00;100143.30;1821451;78;27485;-42
2023/01/14 05:05:58;;;;;;;12.68;7.30;;;;;;;3.77;100.00;100144.38;1854873;77;25777;-42
2023/01/14 05:08:24;;;;;;;12.55;7.80;;;;;;;3.75;100.00;100145.19;1821452;78;25525;-41
2023/01/14 05:10:52;;;;;;;13.50;7.33;;;;;;;3.74;100.00;100143.56;1849259;77;25403;-43
2023/01/14 05:13:19;;;;;;;13.20;7.33;;;;;;;3.72;100.00;100141.70;1821457;78;25373;-42
2023/01/14 05:15:46;;;;;;;13.30;7.58;;;;;;;3.68;100.00;100137.42;1821481;78;27153;-41
2023/01/14 05:18:17;;;;;;;15.38;7.97;;;;;;;3.68;100.00;100145.45;1821349;78;25522;-42
2023/01/14 05:20:45;;;;;;;12.18;7.17;;;;;;;3.69;100.00;100147.03;1821478;78;25441;-43
2023/01/14 05:23:16;;;;;;;12.07;7.47;;;;;;;3.69;100.00;100155.61;1821419;78;25537;-43
2023/01/14 05:25:44;;;;;;;15.98;7.70;;;;;;;3.70;100.00;100158.56;1821494;78;25450;-43
2023/01/14 05:28:15;;;;;;;15.00;8.20;;;;;;;3.71;100.00;100153.46;1821420;78;27457;-43
2023/01/14 05:30:42;;;;;;;14.28;8.08;;;;;;;3.73;100.00;100167.40;1821248;78;25448;-44
2023/01/14 05:33:09;;;;;;;17.92;8.33;;;;;;;3.74;100.00;100164.97;1821435;78;25439;-44
2023/01/14 05:35:37;;;;;;;16.37;7.25;;;;;;;3.75;100.00;100167.92;1821413;78;25599;-44
2023/01/14 05:38:06;;;;;;;15.43;7.35;;;;;;;3.76;100.00;100175.41;1821462;78;25387;-44
2023/01/14 05:40:33;;;;;;;12.03;6.75;;;;;;;3.79;100.00;100172.20;1821583;78;28120;-42
2023/01/14 05:45:51;;;;;;;13.55;7.03;;;;;;;3.82;100.00;100184.52;1821452;78;25415;-44
2023/01/14 05:48:25;;;;;;;14.25;7.17;;;;;;;3.85;100.00;100177.84;1821412;78;26025;-43
2023/01/14 05:50:54;;;;;;;13.30;6.95;;;;;;;3.87;100.00;100190.41;1821446;78;25552;-46
2023/01/14 05:53:22;;;;;;;14.58;7.20;;;;;;;3.87;100.00;100198.44;1821451;78;27464;-43
2023/01/14 05:55:50;;;;;;;15.45;7.45;;;;;;;3.86;100.00;100195.48;1821268;78;27348;-45
2023/01/14 05:58:18;;;;;;;11.65;6.28;;;;;;;3.86;100.00;100196.83;1821548;78;25622;-43
2023/01/14 06:06:29;;;;;;;13.30;7.17;;;;;;;3.85;100.00;100193.35;1821412;78;27817;-41
2023/01/14 06:08:59;;;;;;;10.30;6.15;;;;;;;3.84;100.00;100199.77;1821357;78;25451;-42
2023/01/14 06:11:29;;;;;;;12.58;6.28;;;;;;;3.81;100.00;100195.48;1821005;78;25545;-42
2023/01/14 06:13:57;;;;;;;9.73;5.70;;;;;;;3.80;100.00;100201.38;1821358;78;25516;-43
2023/01/14 06:16:28;;;;;;;13.72;6.83;;;;;;;3.78;100.00;100198.17;1789460;78;25395;-43
2023/01/14 06:18:56;;;;;;;11.80;5.83;;;;;;;3.76;100.00;100204.30;1821473;78;27469;-42
2023/01/14 06:21:29;;;;;;;10.68;5.87;;;;;;;3.73;100.00;100202.97;1821322;78;25638;-42
2023/01/14 06:23:58;;;;;;;13.58;6.17;;;;;;;3.73;100.00;100206.19;1821476;78;25539;-43
2023/01/14 06:26:27;;;;;;;12.50;6.43;;;;;;;3.70;100.00;100214.20;1821657;78;25546;-42
2023/01/14 06:29:01;;;;;;;14.23;6.70;;;;;;;3.69;100.00;100211.23;1816573;78;25392;-42
2023/01/14 06:31:29;;;;;;;8.95;5.65;;;;;;;3.67;100.00;100221.95;1825991;78;27428;-41
2023/01/14 06:33:56;;;;;;;10.93;6.08;;;;;;;3.64;100.00;100219.80;1797072;78;25493;-43
2023/01/14 06:36:24;;;;;;;10.03;6.00;;;;;;;3.61;100.00;100222.99;1827479;78;25607;-43
2023/01/14 06:38:51;;;;;;;12.85;5.65;;;;;;;3.59;100.00;100227.81;1827467;78;25452;-42
2023/01/14 06:41:17;;;;;;;11.60;5.97;;;;;;;3.58;100.00;100228.35;1827469;78;25425;-43
2023/01/14 06:43:44;;;;;;;10.10;6.15;;;;;;;3.59;100.00;100234.50;1827500;78;27478;-43
2023/01/14 06:46:13;;;;;;;10.25;5.37;;;;;;;3.60;100.00;100235.57;1827374;78;25518;-43
2023/01/14 06:48:41;;;;;;;9.95;6.78;;;;;;;3.62;100.00;100244.13;1827637;78;28822;-43
2023/01/14 06:51:12;;;;;;;13.08;5.65;;;;;;;3.64;100.00;100241.98;1827442;78;26197;-42
2023/01/14 06:53:40;;;;;;;9.45;4.78;;;;;;;3.65;100.00;100240.14;1827546;78;25446;-42
2023/01/14 06:56:10;;;;;;;10.75;4.85;;;;;;;3.65;100.00;100242.27;1797475;78;27390;-43
2023/01/14 06:58:37;;;;;;;9.65;5.50;;;;;;;3.68;100.00;100244.42;1797207;78;25415;-43
2023/01/14 07:01:03;;;;;;;9.25;5.50;;;;;;;3.69;100.00;100236.66;1827620;78;25617;-41
2023/01/14 07:03:30;;;;;;;9.68;5.25;;;;;;;3.72;100.00;100248.71;1797790;78;25690;-41
2023/01/14 07:05:58;;;;;;;9.98;5.50;;;;;;;3.74;100.00;100249.25;1827841;78;25551;-41
2023/01/14 07:08:24;;;;;;;9.63;5.30;;;;;;;3.76;100.00;100247.10;1827569;78;28100;-44
2023/01/14 07:10:51;;;;;;;13.08;5.62;;;;;;;3.78;100.00;100251.68;1827437;78;32763;-41
2023/01/14 07:13:19;;;;;;;11.43;4.90;;;;;;;3.79;100.00;100248.46;1827544;78;25446;-42
2023/01/14 07:15:47;;;;;;;8.37;5.37;;;;;;;3.83;100.00;100254.88;1827725;78;25472;-42
2023/01/14 07:18:14;;;;;;;12.40;5.30;;;;;;;3.85;100.00;100254.11;1827480;78;25417;-44
2023/01/14 07:20:42;;;;;;;8.63;4.35;;;;;;;3.90;100.00;100264.81;1827393;78;27577;-42
2023/01/14 07:23:09;;;;;;;8.20;4.45;;;;;;;3.89;100.00;100259.98;1827463;78;25587;-42
2023/01/14 07:25:37;;;;;;;13.15;5.97;;;;;;;3.96;100.00;100259.72;1827573;78;25523;-43
2023/01/14 07:28:04;;;;;;;14.73;5.72;;;;;;;4.01;100.00;100265.62;1827475;78;26000;-43
2023/01/14 07:30:31;;;;;;;11.93;5.17;;;;;;;4.04;100.00;100266.44;1825800;78;25603;-42
2023/01/14 07:33:00;;;;;;;10.18;5.28;;;;;;;4.09;100.00;100279.83;1821613;78;27632;-42
2023/01/14 07:35:29;;;;;;;15.18;6.03;;;;;;;4.14;100.00;100284.37;1821489;78;25737;-42
2023/01/14 07:37:58;;;;;;;12.37;4.80;;;;;;;4.17;100.00;100289.20;1788394;78;25935;-43
2023/01/14 07:40:27;;;;;;;10.75;5.08;;;;;;;4.21;100.00;100292.42;1821462;78;25575;-41
2023/01/14 07:42:58;;;;;;;10.13;5.37;;;;;;;4.22;100.00;100287.86;1821360;78;25687;-45
2023/01/14 07:45:28;;;;;;;12.68;5.70;;;;;;;4.23;100.00;100288.94;1821428;78;28290;-41
2023/01/14 07:47:56;;;;;;;12.23;4.60;;;;;;;4.27;100.00;100297.23;1821434;78;25621;-41
2023/01/14 07:50:23;;;;;;;9.65;5.03;;;;;;;4.31;100.00;100302.34;1821381;78;25385;-43
2023/01/14 07:52:55;;;;;;;13.32;5.30;;;;;;;4.33;100.00;100304.77;1821405;78;25537;-44
2023/01/14 07:55:24;;;;;;;13.32;5.62;;;;;;;4.37;100.00;100303.14;1821431;78;25610;-43
2023/01/14 07:57:52;;;;;;;6.17;4.28;;;;;;;4.42;100.00;100307.16;1821555;78;27460;-40
2023/01/14 08:00:20;;;;;;;10.98;4.70;;;;;;;4.44;100.00;100313.05;1789305;78;25493;-41
2023/01/14 08:02:48;;;;;;;6.87;5.17;;;;;;;4.47;100.00;100316.00;1821610;78;25553;-42
2023/01/14 08:05:18;;;;;;;12.43;4.92;;;;;;;4.49;100.00;100309.86;1821301;78;25516;-41
2023/01/14 08:07:45;;;;;;;11.60;4.97;;;;;;;4.57;100.00;100310.39;1821428;78;25552;-42
2023/01/14 08:10:13;;;;;;;11.85;4.95;;;;;;;4.62;100.00;100318.42;1821322;78;28037;-43
2023/01/14 08:12:39;;;;;;;8.00;4.58;;;;;;;4.65;100.00;100320.58;1821217;78;25519;-44
2023/01/14 08:15:12;;;;;;;7.85;4.90;;;;;;;4.70;100.00;100320.57;1821302;78;25373;-44
2023/01/14 08:17:41;;;;;;;10.32;4.78;;;;;;;4.74;100.00;100312.80;1821311;78;25669;-42
2023/01/14 08:20:13;;;;;;;7.47;4.50;;;;;;;4.82;100.00;100325.66;1821338;78;25659;-42
2023/01/14 08:22:40;;;;;;;8.58;4.55;;;;;;;4.87;100.00;100325.66;1821298;78;27486;-43
2023/01/14 08:25:09;;;;;;;8.30;3.98;;;;;;;4.94;100.00;100330.71;1821244;78;25596;-42
2023/01/14 08:27:37;;;;;;;9.98;4.12;;;;;;;5.00;100.00;100333.66;1821443;78;25552;-42
2023/01/14 08:30:09;;;;;;;9.90;4.20;;;;;;;5.12;100.00;100334.17;1821119;78;25585;-42
2023/01/14 08:32:37;;;;;;;6.37;3.85;;;;;;;5.48;100.00;100332.73;1821356;78;25598;-43
2023/01/14 08:35:06;;;;;;;8.88;4.50;;;;;;;5.88;100.00;100344.94;1821280;78;27513;-44
2023/01/14 08:37:35;;;;;;;8.43;4.40;;;;;;;6.17;100.00;100350.45;1821372;78;25385;-42
2023/01/14 08:40:05;;;;;;;11.55;5.22;;;;;;;6.46;100.00;100345.70;1821407;78;25442;-43
2023/01/14 08:42:31;;;;;;;7.17;3.92;;;;;;;6.87;100.00;100353.43;1779940;78;25559;-42
2023/01/14 08:44:57;;;;;;;9.23;4.42;;;;;;;7.33;99.70;100358.36;1821378;78;25540;-42
2023/01/14 08:47:30;;;;;;;7.08;3.95;;;;;;;7.75;99.07;100364.89;1821269;78;27666;-42
2023/01/14 08:49:56;;;;;;;8.10;4.33;;;;;;;8.07;94.42;100361.25;1821189;78;25430;-43
2023/01/14 08:52:23;;;;;;;7.47;4.10;;;;;;;8.29;94.75;100363.38;1821276;78;25553;-41
2023/01/14 08:54:49;;;;;;;7.70;4.17;;;;;;;8.68;94.78;100363.07;1821347;78;27738;-40
2023/01/14 08:57:15;;;;;;;12.23;4.47;;;;;;;9.18;94.04;100373.31;1821497;78;25375;-41
2023/01/14 08:59:42;;;;;;;10.32;4.65;;;;;;;9.45;93.90;100368.50;1821258;78;29682;-42
2023/01/14 09:02:13;;;;;;;8.63;3.83;;;;;;;9.77;91.34;100366.78;1789238;78;25415;-43
2023/01/14 09:04:40;;;;;;;9.30;4.05;;;;;;;9.97;88.72;100369.61;1821401;78;25405;-43
2023/01/14 09:18:07;;;;;;;5.92;3.67;;;;;;;11.62;86.92;100380.55;1817060;78;25488;-42
2023/01/14 09:20:40;;;;;;;7.80;4.10;;;;;;;11.81;85.86;100376.22;1821336;78;25608;-41
2023/01/14 09:23:09;;;;;;;7.95;3.67;;;;;;;12.17;86.57;100380.61;1821357;78;25558;-42
2023/01/14 09:25:36;;;;;;;6.62;3.85;;;;;;;12.56;78.85;100387.02;1821460;78;27470;-43
2023/01/14 09:28:03;;;;;;;7.47;3.58;;;;;;;12.43;75.87;100384.16;1821257;78;25558;-43
2023/01/14 09:30:31;;;;;;;8.13;3.37;;;;;;;12.18;73.84;100383.58;1821124;78;25435;-42
2023/01/14 09:32:59;;;;;;;7.60;3.55;;;;;;;12.01;73.46;100383.78;1820806;78;26144;-42
2023/01/14 09:35:27;;;;;;;6.15;3.60;;;;;;;11.99;74.10;100383.88;1821439;78;25532;-42
2023/01/14 09:37:54;;;;;;;9.78;3.60;;;;;;;11.80;75.63;100377.31;1821572;78;27525;-41
2023/01/14 09:40:20;;;;;;;6.58;3.60;;;;;;;11.96;75.37;100375.80;1821431;78;25706;-41
2023/01/14 09:42:50;;;;;;;8.03;3.40;;;;;;;12.30;76.63;100372.89;1821510;78;25413;-41
2023/01/14 09:45:32;;;;;;;7.20;3.50;;;;;;;12.48;77.62;100370.97;1821581;78;26036;-42
2023/01/14 09:48:04;;;;;;;9.25;3.37;;;;;;;12.74;76.59;100370.97;1821477;78;25580;-43
2023/01/14 09:51:14;;;;;;;4.80;2.70;;;;;;;12.43;69.30;100386.87;1787060;78;28498;-42
2023/01/14 09:53:58;;;;;;;;;;;;;;;12.07;71.81;100369.52;1824020;78;25613;-43
2023/01/14 09:56:33;;;;;;;8.70;3.72;;;;;;;11.92;72.28;100376.20;1820724;78;25510;-42
2023/01/14 09:59:20;;;;;;;8.20;3.65;;;;;;;11.51;71.29;100374.05;1821193;78;25507;-43
2023/01/14 10:02:17;;;;;;;11.20;3.08;;;;;;;11.11;72.60;100372.66;1820619;78;25360;-43
2023/01/14 10:05:22;;;;;;;7.55;3.20;;;;;;;10.93;72.07;100373.14;1752032;81;27485;-41
2023/01/14 10:07:50;;;;;;;11.35;3.45;;;;;;;10.73;74.30;100371.72;1739481;82;27320;-43
2023/01/14 10:10:33;;;;;;;6.83;3.02;;;;;;;10.71;75.07;100363.66;1755745;81;25511;-42
2023/01/14 10:13:04;;;;;;;3.85;2.60;;;;;;;10.87;73.88;100363.53;1756510;81;25627;-44
2023/01/14 10:15:45;;;;;;;5.00;2.40;;;;;;;11.02;75.39;100363.71;1819221;78;25557;-44
2023/01/14 10:18:38;;;;;;;11.48;3.12;;;;;;;11.14;74.22;100367.20;1819282;78;28286;-42
2023/01/14 10:21:10;;;;;;;6.75;2.67;;;;;;;10.98;71.45;100370.30;1819164;78;25557;-42
2023/01/14 10:23:40;;;;;;;6.58;2.67;;;;;;;10.71;73.78;100370.42;1818532;78;25477;-43
2023/01/14 10:26:17;;;;;;;4.70;3.02;;;;;;;10.51;72.41;100373.87;1819201;78;26077;-41
2023/01/14 10:28:51;;;;;;;10.60;2.60;;;;;;;10.19;70.89;100376.19;1815048;78;25549;-42
2023/01/14 10:31:34;;;;;;;5.75;2.52;;;;;;;9.90;71.63;100375.42;1813716;78;28289;-41
2023/01/14 10:34:01;;;;;;;6.97;3.20;;;;;;;9.65;72.89;100374.06;1797378;79;25607;-42
2023/01/14 10:36:31;;;;;;;4.92;2.50;;;;;;;9.53;73.01;100384.54;1797557;79;25573;-43
2023/01/14 10:39:02;;;;;;;6.12;2.60;;;;;;;9.40;73.38;100384.80;1797440;79;25644;-43
2023/01/14 10:41:48;;;;;;;4.78;2.60;;;;;;;9.18;72.21;100381.94;1836300;77;25496;-42
2023/01/14 10:44:27;;;;;;;13.58;6.15;;;;;;;8.98;73.86;100380.66;1862363;77;27596;-41
2023/01/14 10:47:01;;;;;;;8.15;3.17;;;;;;;8.92;74.79;100379.16;1862375;77;25543;-41
2023/01/14 10:49:59;;;;;;;6.20;3.27;;;;;;;8.84;74.84;100376.34;1862359;77;25560;-42
2023/01/14 10:52:30;;;;;;;7.67;3.33;;;;;;;8.77;74.01;100374.02;1862339;77;25569;-41
2023/01/14 10:55:14;;;;;;;7.30;3.17;;;;;;;8.69;75.71;100376.82;1792152;80;25416;-41
2023/01/14 10:57:48;;;;;;;6.20;3.50;;;;;;;8.67;75.77;100379.58;1792117;80;27495;-42
2023/01/14 11:00:35;;;;;;;5.62;2.80;;;;;;;8.66;76.32;100377.95;1786221;80;25439;-41
2023/01/14 11:03:07;;;;;;;8.30;2.72;;;;;;;8.70;76.84;100369.52;1824517;78;25383;-42
2023/01/14 11:05:39;;;;;;;10.88;3.12;;;;;;;8.74;77.05;100365.95;1793344;78;25480;-41
2023/01/14 11:08:35;;;;;;;5.92;3.05;;;;;;;9.00;78.44;100368.22;1824492;78;25616;-42
2023/01/14 11:11:12;;;;;;;6.67;3.05;;;;;;;9.70;76.98;100369.91;1824444;78;27533;-42
2023/01/14 11:13:44;;;;;;;6.47;3.00;;;;;;;10.21;76.59;100362.60;1824412;78;25417;-43
2023/01/14 11:16:27;;;;;;;5.28;3.10;;;;;;;10.53;74.70;100357.34;1824577;78;25433;-43
2023/01/14 11:19:03;;;;;;;5.62;2.83;;;;;;;10.57;73.73;100362.37;1818512;78;26135;-44
2023/01/14 11:21:37;;;;;;;7.75;3.12;;;;;;;10.55;73.03;100356.47;1821439;78;25472;-41
2023/01/14 11:24:09;;;;;;;7.20;2.60;;;;;;;10.37;72.14;100363.11;1793929;78;27345;-43
2023/01/14 11:26:39;;;;;;;8.88;4.08;;;;;;;10.04;71.61;100356.48;1822343;78;25560;-42
2023/01/14 11:29:14;;;;;;;7.33;2.92;;;;;;;9.72;71.80;100365.00;1824486;78;25376;-43
2023/01/14 11:31:45;;;;;;;6.28;2.85;;;;;;;9.54;72.54;100361.85;1822969;77;25862;-42
2023/01/14 11:34:29;;;;;;;6.28;2.65;;;;;;;9.35;71.56;100363.30;1789520;78;25397;-41
2023/01/14 11:37:14;;;;;;;7.53;2.87;;;;;;;9.12;71.53;100369.89;1821489;78;27636;-41
2023/01/14 11:39:52;;;;;;;3.47;2.12;;;;;;;8.95;72.86;100362.36;1821316;78;25390;-43
2023/01/14 11:42:42;;;;;;;5.53;2.70;;;;;;;8.83;72.77;100359.89;1819190;78;25524;-41
2023/01/14 11:45:17;;;;;;;6.58;2.87;;;;;;;8.73;73.61;100354.90;1821317;78;25626;-50
2023/01/14 11:47:53;;;;;;;5.92;2.58;;;;;;;8.70;74.00;100370.88;1789423;78;25580;-41
2023/01/14 11:50:29;;;;;;;8.93;3.47;;;;;;;8.67;74.06;100355.30;1821564;78;27643;-43
2023/01/14 11:53:18;;;;;;;5.87;2.20;;;;;;;8.66;74.30;100353.69;1821531;78;27330;-43
2023/01/14 11:55:49;;;;;;;8.03;3.20;;;;;;;8.62;73.90;100356.73;1821477;78;25398;-41
2023/01/14 11:58:22;;;;;;;6.30;2.65;;;;;;;8.52;74.35;100362.52;1821416;78;26108;-44
2023/01/14 12:00:59;;;;;;;7.78;2.70;;;;;;;8.39;73.98;100351.09;1821571;78;25405;-41
2023/01/14 12:03:57;;;;;;;6.15;2.70;;;;;;;8.25;73.75;100351.03;1821385;78;27505;-40
2023/01/14 12:06:30;;;;;;;8.35;3.40;;;;;;;8.17;74.49;100363.80;1821476;78;25441;-41
2023/01/14 12:09:04;;;;;;;7.37;3.30;;;;;;;8.06;75.00;100351.03;1820723;78;25463;-41
2023/01/14 12:11:36;;;;;;;4.75;2.60;;;;;;;8.03;74.29;100347.56;1821128;78;26333;-41
2023/01/14 12:17:03;;;;;;;8.60;3.33;;;;;;;7.93;75.32;100345.02;1821172;78;28524;-40